sensor_id;sensor_type;location;lat;lon;timestamp;P1;durP1;ratioP1;P2;durP2;ratioP2
5460;SDS011;2753;49.196;8.286;2022-12-18T00:13:51;89.57;;;24.10;;
5460;SDS011;2753;49.196;8.286;2022-12-18T00:21:30;85.33;;;25.27;;
5460;SDS011;2753;49.196;8.286;2022-12-18T00:29:05;87.00;;;25.47;;
5460;SDS011;2753;49.196;8.286;2022-12-18T00:34:13;85.20;;;25.33;;
5460;SDS011;2753;49.196;8.286;2022-12-18T00:46:53;89.00;;;25.27;;
5460;SDS011;2753;49.196;8.286;2022-12-18T00:49:19;80.57;;;22.30;;
5460;SDS011;2753;49.196;8.286;2022-12-18T00:51:45;89.73;;;27.00;;
5460;SDS011;2753;49.196;8.286;2022-12-18T00:54:11;73.20;;;24.50;;
5460;SDS011;2753;49.196;8.286;2022-12-18T00:56:37;91.73;;;26.10;;
5460;SDS011;2753;49.196;8.286;2022-12-18T00:59:03;73.10;;;21.60;;
5460;SDS011;2753;49.196;8.286;2022-12-18T01:01:29;95.33;;;25.33;;
5460;SDS011;2753;49.196;8.286;2022-12-18T01:03:55;105.30;;;25.47;;
5460;SDS011;2753;49.196;8.286;2022-12-18T01:06:21;78.63;;;25.27;;
5460;SDS011;2753;49.196;8.286;2022-12-18T01:08:47;97.37;;;28.47;;
5460;SDS011;2753;49.196;8.286;2022-12-18T01:11:14;81.53;;;22.80;;
5460;SDS011;2753;49.196;8.286;2022-12-18T01:13:42;87.80;;;25.27;;
5460;SDS011;2753;49.196;8.286;2022-12-18T01:16:08;89.40;;;23.07;;
5460;SDS011;2753;49.196;8.286;2022-12-18T01:18:36;110.00;;;26.40;;
5460;SDS011;2753;49.196;8.286;2022-12-18T01:21:05;97.03;;;28.67;;
5460;SDS011;2753;49.196;8.286;2022-12-18T01:23:35;79.20;;;29.07;;
5460;SDS011;2753;49.196;8.286;2022-12-18T01:26:07;84.60;;;25.50;;
5460;SDS011;2753;49.196;8.286;2022-12-18T01:28:38;103.20;;;27.13;;
5460;SDS011;2753;49.196;8.286;2022-12-18T01:33:44;80.10;;;21.97;;
5460;SDS011;2753;49.196;8.286;2022-12-18T01:39:02;117.90;;;30.00;;
5460;SDS011;2753;49.196;8.286;2022-12-18T01:41:30;99.20;;;27.90;;
5460;SDS011;2753;49.196;8.286;2022-12-18T01:47:20;101.57;;;26.23;;
5460;SDS011;2753;49.196;8.286;2022-12-18T01:49:54;101.63;;;28.57;;
5460;SDS011;2753;49.196;8.286;2022-12-18T01:52:22;85.60;;;25.70;;
5460;SDS011;2753;49.196;8.286;2022-12-18T01:54:50;88.97;;;27.57;;
5460;SDS011;2753;49.196;8.286;2022-12-18T01:57:17;92.10;;;26.10;;
5460;SDS011;2753;49.196;8.286;2022-12-18T01:59:44;85.33;;;25.27;;
5460;SDS011;2753;49.196;8.286;2022-12-18T02:02:12;99.53;;;28.67;;
5460;SDS011;2753;49.196;8.286;2022-12-18T02:04:40;107.40;;;32.50;;
5460;SDS011;2753;49.196;8.286;2022-12-18T02:09:50;102.47;;;27.97;;
5460;SDS011;2753;49.196;8.286;2022-12-18T02:12:24;86.73;;;26.53;;
5460;SDS011;2753;49.196;8.286;2022-12-18T02:15:00;101.03;;;29.70;;
5460;SDS011;2753;49.196;8.286;2022-12-18T02:25:24;89.17;;;27.80;;
5460;SDS011;2753;49.196;8.286;2022-12-18T02:27:58;91.67;;;28.20;;
5460;SDS011;2753;49.196;8.286;2022-12-18T02:30:26;103.40;;;29.00;;
5460;SDS011;2753;49.196;8.286;2022-12-18T02:32:57;82.97;;;22.60;;
5460;SDS011;2753;49.196;8.286;2022-12-18T02:35:25;90.77;;;25.03;;
5460;SDS011;2753;49.196;8.286;2022-12-18T02:37:55;98.00;;;28.30;;
5460;SDS011;2753;49.196;8.286;2022-12-18T02:40:22;99.20;;;32.00;;
5460;SDS011;2753;49.196;8.286;2022-12-18T02:42:49;91.17;;;25.93;;
5460;SDS011;2753;49.196;8.286;2022-12-18T02:45:15;87.87;;;27.10;;
5460;SDS011;2753;49.196;8.286;2022-12-18T02:47:42;105.00;;;29.97;;
5460;SDS011;2753;49.196;8.286;2022-12-18T02:53:04;107.83;;;27.00;;
5460;SDS011;2753;49.196;8.286;2022-12-18T02:55:59;78.77;;;24.23;;
5460;SDS011;2753;49.196;8.286;2022-12-18T03:01:15;90.37;;;28.90;;
5460;SDS011;2753;49.196;8.286;2022-12-18T03:03:52;104.27;;;28.47;;
5460;SDS011;2753;49.196;8.286;2022-12-18T03:06:32;90.20;;;27.50;;
5460;SDS011;2753;49.196;8.286;2022-12-18T03:09:09;86.80;;;27.23;;
5460;SDS011;2753;49.196;8.286;2022-12-18T03:11:38;76.83;;;24.80;;
5460;SDS011;2753;49.196;8.286;2022-12-18T03:14:28;72.20;;;23.77;;
5460;SDS011;2753;49.196;8.286;2022-12-18T03:16:57;88.20;;;25.07;;
5460;SDS011;2753;49.196;8.286;2022-12-18T03:19:27;92.77;;;26.23;;
5460;SDS011;2753;49.196;8.286;2022-12-18T03:21:57;93.03;;;24.53;;
5460;SDS011;2753;49.196;8.286;2022-12-18T03:24:28;86.90;;;25.20;;
5460;SDS011;2753;49.196;8.286;2022-12-18T03:27:02;110.57;;;27.30;;
5460;SDS011;2753;49.196;8.286;2022-12-18T03:29:43;88.27;;;26.33;;
5460;SDS011;2753;49.196;8.286;2022-12-18T03:32:20;85.47;;;28.00;;
5460;SDS011;2753;49.196;8.286;2022-12-18T03:34:58;77.43;;;24.90;;
5460;SDS011;2753;49.196;8.286;2022-12-18T03:37:28;85.20;;;26.00;;
5460;SDS011;2753;49.196;8.286;2022-12-18T03:39:55;89.53;;;27.87;;
5460;SDS011;2753;49.196;8.286;2022-12-18T03:42:32;90.47;;;26.90;;
5460;SDS011;2753;49.196;8.286;2022-12-18T03:50:37;77.73;;;24.20;;
5460;SDS011;2753;49.196;8.286;2022-12-18T03:55:57;94.90;;;25.70;;
5460;SDS011;2753;49.196;8.286;2022-12-18T03:58:25;110.83;;;29.73;;
5460;SDS011;2753;49.196;8.286;2022-12-18T04:00:52;97.30;;;27.90;;
5460;SDS011;2753;49.196;8.286;2022-12-18T04:03:21;100.30;;;26.83;;
5460;SDS011;2753;49.196;8.286;2022-12-18T04:05:49;112.53;;;30.70;;
5460;SDS011;2753;49.196;8.286;2022-12-18T04:08:18;83.37;;;24.47;;
5460;SDS011;2753;49.196;8.286;2022-12-18T04:10:44;78.07;;;23.07;;
5460;SDS011;2753;49.196;8.286;2022-12-18T04:13:10;104.37;;;29.80;;
5460;SDS011;2753;49.196;8.286;2022-12-18T04:15:36;90.97;;;25.17;;
5460;SDS011;2753;49.196;8.286;2022-12-18T04:18:03;85.23;;;26.10;;
5460;SDS011;2753;49.196;8.286;2022-12-18T04:20:29;94.00;;;25.60;;
5460;SDS011;2753;49.196;8.286;2022-12-18T04:22:55;83.23;;;25.60;;
5460;SDS011;2753;49.196;8.286;2022-12-18T04:25:20;86.80;;;28.40;;
5460;SDS011;2753;49.196;8.286;2022-12-18T04:27:46;87.27;;;26.87;;
5460;SDS011;2753;49.196;8.286;2022-12-18T04:30:12;98.37;;;29.67;;
5460;SDS011;2753;49.196;8.286;2022-12-18T04:32:37;92.70;;;25.23;;
5460;SDS011;2753;49.196;8.286;2022-12-18T04:35:03;75.80;;;22.60;;
5460;SDS011;2753;49.196;8.286;2022-12-18T04:37:31;86.97;;;25.47;;
5460;SDS011;2753;49.196;8.286;2022-12-18T04:39:57;94.47;;;29.80;;
5460;SDS011;2753;49.196;8.286;2022-12-18T04:42:23;100.57;;;28.07;;
5460;SDS011;2753;49.196;8.286;2022-12-18T04:44:48;75.77;;;23.13;;
5460;SDS011;2753;49.196;8.286;2022-12-18T04:47:14;77.80;;;25.10;;
5460;SDS011;2753;49.196;8.286;2022-12-18T04:49:40;105.73;;;31.77;;
5460;SDS011;2753;49.196;8.286;2022-12-18T04:52:06;115.13;;;33.87;;
5460;SDS011;2753;49.196;8.286;2022-12-18T04:54:32;87.87;;;27.97;;
5460;SDS011;2753;49.196;8.286;2022-12-18T04:56:58;100.77;;;30.67;;
5460;SDS011;2753;49.196;8.286;2022-12-18T04:59:24;113.03;;;29.77;;
5460;SDS011;2753;49.196;8.286;2022-12-18T05:01:49;105.70;;;31.23;;
5460;SDS011;2753;49.196;8.286;2022-12-18T05:04:15;68.93;;;22.07;;
5460;SDS011;2753;49.196;8.286;2022-12-18T05:06:41;77.07;;;26.30;;
5460;SDS011;2753;49.196;8.286;2022-12-18T05:09:07;84.87;;;27.00;;
5460;SDS011;2753;49.196;8.286;2022-12-18T05:11:32;77.17;;;26.80;;
5460;SDS011;2753;49.196;8.286;2022-12-18T05:13:58;82.30;;;27.47;;
5460;SDS011;2753;49.196;8.286;2022-12-18T05:16:24;125.17;;;35.53;;
5460;SDS011;2753;49.196;8.286;2022-12-18T05:18:50;90.10;;;25.97;;
5460;SDS011;2753;49.196;8.286;2022-12-18T05:21:15;73.77;;;25.07;;
5460;SDS011;2753;49.196;8.286;2022-12-18T05:23:41;64.37;;;22.87;;
5460;SDS011;2753;49.196;8.286;2022-12-18T05:26:07;83.80;;;27.67;;
5460;SDS011;2753;49.196;8.286;2022-12-18T05:28:34;88.03;;;27.83;;
5460;SDS011;2753;49.196;8.286;2022-12-18T05:31:01;75.20;;;25.37;;
5460;SDS011;2753;49.196;8.286;2022-12-18T05:33:30;74.33;;;26.17;;
5460;SDS011;2753;49.196;8.286;2022-12-18T05:35:58;68.70;;;24.17;;
5460;SDS011;2753;49.196;8.286;2022-12-18T05:38:26;64.23;;;22.30;;
5460;SDS011;2753;49.196;8.286;2022-12-18T05:40:53;77.30;;;24.30;;
5460;SDS011;2753;49.196;8.286;2022-12-18T05:43:19;87.43;;;26.60;;
5460;SDS011;2753;49.196;8.286;2022-12-18T05:45:46;66.20;;;25.00;;
5460;SDS011;2753;49.196;8.286;2022-12-18T05:48:13;81.73;;;27.80;;
5460;SDS011;2753;49.196;8.286;2022-12-18T05:50:39;75.00;;;24.37;;
5460;SDS011;2753;49.196;8.286;2022-12-18T05:53:06;75.37;;;25.03;;
5460;SDS011;2753;49.196;8.286;2022-12-18T05:55:33;70.77;;;26.93;;
5460;SDS011;2753;49.196;8.286;2022-12-18T05:58:01;74.73;;;28.30;;
5460;SDS011;2753;49.196;8.286;2022-12-18T06:00:27;75.23;;;27.50;;
5460;SDS011;2753;49.196;8.286;2022-12-18T06:02:53;83.23;;;28.17;;
5460;SDS011;2753;49.196;8.286;2022-12-18T06:05:19;107.07;;;30.77;;
5460;SDS011;2753;49.196;8.286;2022-12-18T06:07:45;87.23;;;26.30;;
5460;SDS011;2753;49.196;8.286;2022-12-18T06:10:10;82.20;;;26.67;;
5460;SDS011;2753;49.196;8.286;2022-12-18T06:12:36;82.20;;;25.90;;
5460;SDS011;2753;49.196;8.286;2022-12-18T06:15:02;72.80;;;22.57;;
5460;SDS011;2753;49.196;8.286;2022-12-18T06:17:32;73.83;;;23.03;;
5460;SDS011;2753;49.196;8.286;2022-12-18T06:19:58;83.30;;;24.13;;
5460;SDS011;2753;49.196;8.286;2022-12-18T06:22:24;66.80;;;22.50;;
5460;SDS011;2753;49.196;8.286;2022-12-18T06:24:51;67.10;;;23.27;;
5460;SDS011;2753;49.196;8.286;2022-12-18T06:27:17;69.23;;;25.23;;
5460;SDS011;2753;49.196;8.286;2022-12-18T06:29:42;77.10;;;25.93;;
5460;SDS011;2753;49.196;8.286;2022-12-18T06:32:08;69.60;;;22.60;;
5460;SDS011;2753;49.196;8.286;2022-12-18T06:34:34;65.80;;;24.20;;
5460;SDS011;2753;49.196;8.286;2022-12-18T06:37:02;83.17;;;25.37;;
5460;SDS011;2753;49.196;8.286;2022-12-18T06:39:28;79.10;;;25.63;;
5460;SDS011;2753;49.196;8.286;2022-12-18T06:41:54;75.10;;;25.93;;
5460;SDS011;2753;49.196;8.286;2022-12-18T06:44:19;74.43;;;24.07;;
5460;SDS011;2753;49.196;8.286;2022-12-18T06:46:45;70.37;;;25.67;;
5460;SDS011;2753;49.196;8.286;2022-12-18T06:49:11;87.53;;;23.10;;
5460;SDS011;2753;49.196;8.286;2022-12-18T06:51:37;62.60;;;23.47;;
5460;SDS011;2753;49.196;8.286;2022-12-18T06:54:03;73.57;;;25.37;;
5460;SDS011;2753;49.196;8.286;2022-12-18T06:56:28;59.27;;;22.70;;
5460;SDS011;2753;49.196;8.286;2022-12-18T06:58:54;68.20;;;25.73;;
5460;SDS011;2753;49.196;8.286;2022-12-18T07:01:20;63.83;;;26.00;;
5460;SDS011;2753;49.196;8.286;2022-12-18T07:03:46;64.13;;;24.10;;
5460;SDS011;2753;49.196;8.286;2022-12-18T07:06:19;67.80;;;23.97;;
5460;SDS011;2753;49.196;8.286;2022-12-18T07:08:47;69.63;;;25.63;;
5460;SDS011;2753;49.196;8.286;2022-12-18T07:11:14;57.00;;;22.17;;
5460;SDS011;2753;49.196;8.286;2022-12-18T07:13:40;67.23;;;23.67;;
5460;SDS011;2753;49.196;8.286;2022-12-18T07:18:32;61.93;;;22.53;;
5460;SDS011;2753;49.196;8.286;2022-12-18T07:20:59;88.10;;;26.13;;
5460;SDS011;2753;49.196;8.286;2022-12-18T07:23:31;87.90;;;26.37;;
5460;SDS011;2753;49.196;8.286;2022-12-18T07:26:03;84.93;;;28.33;;
5460;SDS011;2753;49.196;8.286;2022-12-18T07:28:30;67.87;;;26.00;;
5460;SDS011;2753;49.196;8.286;2022-12-18T07:30:57;100.47;;;34.27;;
5460;SDS011;2753;49.196;8.286;2022-12-18T07:33:24;102.07;;;35.37;;
5460;SDS011;2753;49.196;8.286;2022-12-18T07:35:51;78.93;;;31.13;;
5460;SDS011;2753;49.196;8.286;2022-12-18T07:38:16;69.93;;;27.30;;
5460;SDS011;2753;49.196;8.286;2022-12-18T07:40:42;69.40;;;25.50;;
5460;SDS011;2753;49.196;8.286;2022-12-18T07:43:08;68.10;;;26.63;;
5460;SDS011;2753;49.196;8.286;2022-12-18T07:45:33;73.07;;;27.67;;
5460;SDS011;2753;49.196;8.286;2022-12-18T07:47:59;75.10;;;25.90;;
5460;SDS011;2753;49.196;8.286;2022-12-18T07:50:25;75.47;;;25.50;;
5460;SDS011;2753;49.196;8.286;2022-12-18T07:52:50;66.33;;;24.67;;
5460;SDS011;2753;49.196;8.286;2022-12-18T07:55:16;77.23;;;26.80;;
5460;SDS011;2753;49.196;8.286;2022-12-18T07:57:42;79.50;;;26.30;;
5460;SDS011;2753;49.196;8.286;2022-12-18T08:00:08;87.13;;;27.97;;
5460;SDS011;2753;49.196;8.286;2022-12-18T08:02:34;77.33;;;28.83;;
5460;SDS011;2753;49.196;8.286;2022-12-18T08:05:00;82.27;;;30.73;;
5460;SDS011;2753;49.196;8.286;2022-12-18T08:07:25;77.30;;;27.40;;
5460;SDS011;2753;49.196;8.286;2022-12-18T08:09:51;66.80;;;24.60;;
5460;SDS011;2753;49.196;8.286;2022-12-18T08:12:17;66.43;;;24.10;;
5460;SDS011;2753;49.196;8.286;2022-12-18T08:14:43;74.17;;;25.00;;
5460;SDS011;2753;49.196;8.286;2022-12-18T08:17:08;76.07;;;28.20;;
5460;SDS011;2753;49.196;8.286;2022-12-18T08:19:34;72.30;;;25.53;;
5460;SDS011;2753;49.196;8.286;2022-12-18T08:22:00;65.33;;;26.67;;
5460;SDS011;2753;49.196;8.286;2022-12-18T08:24:25;82.70;;;27.30;;
5460;SDS011;2753;49.196;8.286;2022-12-18T08:26:51;79.47;;;25.93;;
5460;SDS011;2753;49.196;8.286;2022-12-18T08:29:17;70.73;;;25.07;;
5460;SDS011;2753;49.196;8.286;2022-12-18T08:31:42;119.10;;;37.97;;
5460;SDS011;2753;49.196;8.286;2022-12-18T08:34:08;126.97;;;41.03;;
5460;SDS011;2753;49.196;8.286;2022-12-18T08:36:34;134.80;;;46.23;;
5460;SDS011;2753;49.196;8.286;2022-12-18T08:39:00;182.70;;;51.77;;
5460;SDS011;2753;49.196;8.286;2022-12-18T08:41:26;109.87;;;34.70;;
5460;SDS011;2753;49.196;8.286;2022-12-18T08:43:51;85.30;;;29.47;;
5460;SDS011;2753;49.196;8.286;2022-12-18T08:46:40;72.33;;;28.33;;
5460;SDS011;2753;49.196;8.286;2022-12-18T08:49:07;79.30;;;28.30;;
5460;SDS011;2753;49.196;8.286;2022-12-18T08:51:34;82.17;;;28.03;;
5460;SDS011;2753;49.196;8.286;2022-12-18T08:54:01;77.73;;;29.83;;
5460;SDS011;2753;49.196;8.286;2022-12-18T08:56:28;74.63;;;28.80;;
5460;SDS011;2753;49.196;8.286;2022-12-18T08:58:55;113.43;;;35.17;;
5460;SDS011;2753;49.196;8.286;2022-12-18T09:01:21;96.37;;;35.40;;
5460;SDS011;2753;49.196;8.286;2022-12-18T09:03:47;87.27;;;33.13;;
5460;SDS011;2753;49.196;8.286;2022-12-18T09:06:14;92.70;;;31.37;;
5460;SDS011;2753;49.196;8.286;2022-12-18T09:08:41;96.83;;;35.43;;
5460;SDS011;2753;49.196;8.286;2022-12-18T09:11:12;74.63;;;29.30;;
5460;SDS011;2753;49.196;8.286;2022-12-18T09:13:39;76.90;;;27.87;;
5460;SDS011;2753;49.196;8.286;2022-12-18T09:16:05;80.37;;;31.87;;
5460;SDS011;2753;49.196;8.286;2022-12-18T09:18:31;76.80;;;31.07;;
5460;SDS011;2753;49.196;8.286;2022-12-18T09:20:57;77.13;;;31.27;;
5460;SDS011;2753;49.196;8.286;2022-12-18T09:23:22;86.50;;;29.87;;
5460;SDS011;2753;49.196;8.286;2022-12-18T09:25:48;82.67;;;32.53;;
5460;SDS011;2753;49.196;8.286;2022-12-18T09:28:15;74.47;;;29.53;;
5460;SDS011;2753;49.196;8.286;2022-12-18T09:30:43;89.90;;;32.87;;
5460;SDS011;2753;49.196;8.286;2022-12-18T09:33:13;87.47;;;30.77;;
5460;SDS011;2753;49.196;8.286;2022-12-18T09:35:40;98.30;;;32.70;;
5460;SDS011;2753;49.196;8.286;2022-12-18T09:38:08;111.90;;;37.90;;
5460;SDS011;2753;49.196;8.286;2022-12-18T09:40:43;91.97;;;36.60;;
5460;SDS011;2753;49.196;8.286;2022-12-18T09:43:17;102.60;;;37.10;;
5460;SDS011;2753;49.196;8.286;2022-12-18T09:45:57;97.83;;;36.33;;
5460;SDS011;2753;49.196;8.286;2022-12-18T09:48:27;94.33;;;34.83;;
5460;SDS011;2753;49.196;8.286;2022-12-18T09:50:57;80.80;;;33.17;;
5460;SDS011;2753;49.196;8.286;2022-12-18T09:53:30;96.40;;;33.97;;
5460;SDS011;2753;49.196;8.286;2022-12-18T09:55:59;99.57;;;36.40;;
5460;SDS011;2753;49.196;8.286;2022-12-18T09:58:33;94.70;;;35.70;;
5460;SDS011;2753;49.196;8.286;2022-12-18T10:01:09;97.03;;;35.97;;
5460;SDS011;2753;49.196;8.286;2022-12-18T10:03:37;105.53;;;38.17;;
5460;SDS011;2753;49.196;8.286;2022-12-18T10:06:07;105.07;;;36.27;;
5460;SDS011;2753;49.196;8.286;2022-12-18T10:13:56;96.67;;;36.80;;
5460;SDS011;2753;49.196;8.286;2022-12-18T10:19:46;105.13;;;38.67;;
5460;SDS011;2753;49.196;8.286;2022-12-18T10:27:39;87.93;;;33.60;;
5460;SDS011;2753;49.196;8.286;2022-12-18T10:30:12;81.30;;;32.77;;
5460;SDS011;2753;49.196;8.286;2022-12-18T10:32:41;81.00;;;31.83;;
5460;SDS011;2753;49.196;8.286;2022-12-18T10:35:11;91.67;;;33.73;;
5460;SDS011;2753;49.196;8.286;2022-12-18T10:38:05;81.83;;;32.13;;
5460;SDS011;2753;49.196;8.286;2022-12-18T10:48:28;84.43;;;30.70;;
5460;SDS011;2753;49.196;8.286;2022-12-18T10:50:54;76.37;;;30.77;;
5460;SDS011;2753;49.196;8.286;2022-12-18T10:53:23;75.60;;;32.43;;
5460;SDS011;2753;49.196;8.286;2022-12-18T10:55:50;88.10;;;32.37;;
5460;SDS011;2753;49.196;8.286;2022-12-18T11:03:37;70.13;;;26.00;;
5460;SDS011;2753;49.196;8.286;2022-12-18T11:06:05;78.60;;;29.87;;
5460;SDS011;2753;49.196;8.286;2022-12-18T11:08:36;69.40;;;28.00;;
5460;SDS011;2753;49.196;8.286;2022-12-18T11:11:02;65.00;;;27.03;;
5460;SDS011;2753;49.196;8.286;2022-12-18T11:13:31;76.93;;;28.33;;
5460;SDS011;2753;49.196;8.286;2022-12-18T11:15:58;66.03;;;27.50;;
5460;SDS011;2753;49.196;8.286;2022-12-18T11:18:31;72.13;;;29.90;;
5460;SDS011;2753;49.196;8.286;2022-12-18T11:21:05;72.60;;;28.37;;
5460;SDS011;2753;49.196;8.286;2022-12-18T11:23:33;83.70;;;29.77;;
5460;SDS011;2753;49.196;8.286;2022-12-18T11:26:00;76.77;;;28.10;;
5460;SDS011;2753;49.196;8.286;2022-12-18T11:28:29;73.07;;;27.97;;
5460;SDS011;2753;49.196;8.286;2022-12-18T11:33:53;72.93;;;28.43;;
5460;SDS011;2753;49.196;8.286;2022-12-18T11:36:39;91.70;;;32.80;;
5460;SDS011;2753;49.196;8.286;2022-12-18T11:44:48;74.13;;;29.43;;
5460;SDS011;2753;49.196;8.286;2022-12-18T11:50:37;78.60;;;30.87;;
5460;SDS011;2753;49.196;8.286;2022-12-18T11:53:02;70.67;;;26.90;;
5460;SDS011;2753;49.196;8.286;2022-12-18T12:01:29;85.37;;;31.60;;
5460;SDS011;2753;49.196;8.286;2022-12-18T12:07:12;75.07;;;28.27;;
5460;SDS011;2753;49.196;8.286;2022-12-18T12:10:16;61.13;;;23.00;;
5460;SDS011;2753;49.196;8.286;2022-12-18T12:26:10;83.00;;;30.30;;
5460;SDS011;2753;49.196;8.286;2022-12-18T12:39:36;76.90;;;29.20;;
5460;SDS011;2753;49.196;8.286;2022-12-18T12:42:05;75.93;;;27.23;;
5460;SDS011;2753;49.196;8.286;2022-12-18T12:44:59;84.83;;;31.93;;
5460;SDS011;2753;49.196;8.286;2022-12-18T12:47:31;76.50;;;29.57;;
5460;SDS011;2753;49.196;8.286;2022-12-18T12:50:11;78.73;;;29.80;;
5460;SDS011;2753;49.196;8.286;2022-12-18T12:52:46;77.53;;;29.27;;
5460;SDS011;2753;49.196;8.286;2022-12-18T12:55:27;81.80;;;32.80;;
5460;SDS011;2753;49.196;8.286;2022-12-18T12:57:56;79.13;;;32.17;;
5460;SDS011;2753;49.196;8.286;2022-12-18T13:00:27;85.37;;;31.70;;
5460;SDS011;2753;49.196;8.286;2022-12-18T13:03:43;84.63;;;33.93;;
5460;SDS011;2753;49.196;8.286;2022-12-18T13:08:25;88.10;;;31.70;;
5460;SDS011;2753;49.196;8.286;2022-12-18T13:10:52;75.53;;;32.97;;
5460;SDS011;2753;49.196;8.286;2022-12-18T13:13:53;103.13;;;33.13;;
5460;SDS011;2753;49.196;8.286;2022-12-18T13:16:21;79.60;;;31.37;;
5460;SDS011;2753;49.196;8.286;2022-12-18T13:18:52;86.93;;;34.30;;
5460;SDS011;2753;49.196;8.286;2022-12-18T13:21:27;92.17;;;33.87;;
5460;SDS011;2753;49.196;8.286;2022-12-18T13:24:14;87.90;;;32.40;;
5460;SDS011;2753;49.196;8.286;2022-12-18T13:26:47;84.93;;;32.43;;
5460;SDS011;2753;49.196;8.286;2022-12-18T13:29:15;101.13;;;35.77;;
5460;SDS011;2753;49.196;8.286;2022-12-18T13:32:15;92.70;;;31.50;;
5460;SDS011;2753;49.196;8.286;2022-12-18T13:34:45;74.60;;;30.00;;
5460;SDS011;2753;49.196;8.286;2022-12-18T13:40:53;82.67;;;29.07;;
5460;SDS011;2753;49.196;8.286;2022-12-18T13:45:47;80.43;;;30.10;;
5460;SDS011;2753;49.196;8.286;2022-12-18T13:48:24;74.77;;;28.47;;
5460;SDS011;2753;49.196;8.286;2022-12-18T13:50:53;78.57;;;31.47;;
5460;SDS011;2753;49.196;8.286;2022-12-18T13:53:24;92.23;;;32.97;;
5460;SDS011;2753;49.196;8.286;2022-12-18T13:55:53;99.77;;;34.30;;
5460;SDS011;2753;49.196;8.286;2022-12-18T13:58:19;87.83;;;33.90;;
5460;SDS011;2753;49.196;8.286;2022-12-18T14:00:45;78.37;;;32.70;;
5460;SDS011;2753;49.196;8.286;2022-12-18T14:03:24;84.37;;;32.67;;
5460;SDS011;2753;49.196;8.286;2022-12-18T14:05:53;83.90;;;31.23;;
5460;SDS011;2753;49.196;8.286;2022-12-18T14:08:31;90.67;;;32.80;;
5460;SDS011;2753;49.196;8.286;2022-12-18T14:11:03;82.00;;;30.20;;
5460;SDS011;2753;49.196;8.286;2022-12-18T14:13:33;80.00;;;32.10;;
5460;SDS011;2753;49.196;8.286;2022-12-18T14:16:02;83.87;;;32.50;;
5460;SDS011;2753;49.196;8.286;2022-12-18T14:21:29;85.87;;;31.60;;
5460;SDS011;2753;49.196;8.286;2022-12-18T14:26:41;89.43;;;31.60;;
5460;SDS011;2753;49.196;8.286;2022-12-18T14:34:41;107.63;;;37.37;;
5460;SDS011;2753;49.196;8.286;2022-12-18T14:37:09;111.97;;;38.17;;
5460;SDS011;2753;49.196;8.286;2022-12-18T14:39:36;94.77;;;34.20;;
5460;SDS011;2753;49.196;8.286;2022-12-18T14:42:02;82.53;;;32.50;;
5460;SDS011;2753;49.196;8.286;2022-12-18T14:44:28;82.13;;;30.07;;
5460;SDS011;2753;49.196;8.286;2022-12-18T14:46:54;77.03;;;32.13;;
5460;SDS011;2753;49.196;8.286;2022-12-18T14:49:31;90.90;;;32.23;;
5460;SDS011;2753;49.196;8.286;2022-12-18T14:52:02;90.23;;;33.17;;
5460;SDS011;2753;49.196;8.286;2022-12-18T14:54:30;74.67;;;29.23;;
5460;SDS011;2753;49.196;8.286;2022-12-18T14:59:26;73.50;;;29.57;;
5460;SDS011;2753;49.196;8.286;2022-12-18T15:04:37;77.43;;;30.87;;
5460;SDS011;2753;49.196;8.286;2022-12-18T15:09:40;81.47;;;33.50;;
5460;SDS011;2753;49.196;8.286;2022-12-18T15:12:19;84.07;;;31.90;;
5460;SDS011;2753;49.196;8.286;2022-12-18T15:14:53;83.83;;;31.80;;
5460;SDS011;2753;49.196;8.286;2022-12-18T15:17:20;79.03;;;28.70;;
5460;SDS011;2753;49.196;8.286;2022-12-18T15:19:48;72.47;;;29.43;;
5460;SDS011;2753;49.196;8.286;2022-12-18T15:24:46;92.83;;;34.90;;
5460;SDS011;2753;49.196;8.286;2022-12-18T15:27:20;72.43;;;27.97;;
5460;SDS011;2753;49.196;8.286;2022-12-18T15:30:39;96.97;;;33.33;;
5460;SDS011;2753;49.196;8.286;2022-12-18T15:32:47;73.37;;;32.23;;
5460;SDS011;2753;49.196;8.286;2022-12-18T15:35:15;73.67;;;30.00;;
5460;SDS011;2753;49.196;8.286;2022-12-18T15:37:49;84.73;;;31.77;;
5460;SDS011;2753;49.196;8.286;2022-12-18T15:40:17;70.33;;;29.17;;
5460;SDS011;2753;49.196;8.286;2022-12-18T15:42:45;104.47;;;35.97;;
5460;SDS011;2753;49.196;8.286;2022-12-18T15:45:31;84.43;;;30.80;;
5460;SDS011;2753;49.196;8.286;2022-12-18T15:47:57;85.40;;;31.50;;
5460;SDS011;2753;49.196;8.286;2022-12-18T15:50:23;85.77;;;30.20;;
5460;SDS011;2753;49.196;8.286;2022-12-18T15:52:49;87.73;;;34.50;;
5460;SDS011;2753;49.196;8.286;2022-12-18T15:55:17;84.57;;;31.50;;
5460;SDS011;2753;49.196;8.286;2022-12-18T15:58:07;84.33;;;35.20;;
5460;SDS011;2753;49.196;8.286;2022-12-18T16:00:34;91.80;;;33.07;;
5460;SDS011;2753;49.196;8.286;2022-12-18T16:03:03;106.83;;;36.23;;
5460;SDS011;2753;49.196;8.286;2022-12-18T16:05:29;85.43;;;32.90;;
5460;SDS011;2753;49.196;8.286;2022-12-18T16:07:56;89.77;;;32.87;;
5460;SDS011;2753;49.196;8.286;2022-12-18T16:10:22;89.93;;;35.80;;
5460;SDS011;2753;49.196;8.286;2022-12-18T16:12:48;81.10;;;33.13;;
5460;SDS011;2753;49.196;8.286;2022-12-18T16:15:15;97.13;;;35.17;;
5460;SDS011;2753;49.196;8.286;2022-12-18T16:17:44;103.07;;;32.83;;
5460;SDS011;2753;49.196;8.286;2022-12-18T16:20:15;90.20;;;35.03;;
5460;SDS011;2753;49.196;8.286;2022-12-18T16:22:42;97.87;;;33.00;;
5460;SDS011;2753;49.196;8.286;2022-12-18T16:25:21;97.43;;;34.87;;
5460;SDS011;2753;49.196;8.286;2022-12-18T16:27:52;75.60;;;30.93;;
5460;SDS011;2753;49.196;8.286;2022-12-18T16:30:21;83.17;;;31.40;;
5460;SDS011;2753;49.196;8.286;2022-12-18T16:32:49;84.73;;;32.07;;
5460;SDS011;2753;49.196;8.286;2022-12-18T16:35:15;118.13;;;37.93;;
5460;SDS011;2753;49.196;8.286;2022-12-18T16:37:41;82.80;;;34.60;;
5460;SDS011;2753;49.196;8.286;2022-12-18T16:40:09;109.17;;;35.80;;
5460;SDS011;2753;49.196;8.286;2022-12-18T16:42:36;95.00;;;34.73;;
5460;SDS011;2753;49.196;8.286;2022-12-18T16:45:04;102.97;;;38.40;;
5460;SDS011;2753;49.196;8.286;2022-12-18T16:47:32;108.03;;;35.83;;
5460;SDS011;2753;49.196;8.286;2022-12-18T16:49:58;100.70;;;36.77;;
5460;SDS011;2753;49.196;8.286;2022-12-18T16:52:24;103.07;;;37.53;;
5460;SDS011;2753;49.196;8.286;2022-12-18T16:54:51;89.97;;;33.83;;
5460;SDS011;2753;49.196;8.286;2022-12-18T16:57:17;91.03;;;34.10;;
5460;SDS011;2753;49.196;8.286;2022-12-18T16:59:44;88.73;;;33.00;;
5460;SDS011;2753;49.196;8.286;2022-12-18T17:02:13;81.83;;;31.50;;
5460;SDS011;2753;49.196;8.286;2022-12-18T17:04:46;90.40;;;32.50;;
5460;SDS011;2753;49.196;8.286;2022-12-18T17:07:13;88.37;;;32.33;;
5460;SDS011;2753;49.196;8.286;2022-12-18T17:09:39;85.13;;;32.00;;
5460;SDS011;2753;49.196;8.286;2022-12-18T17:12:06;81.37;;;32.50;;
5460;SDS011;2753;49.196;8.286;2022-12-18T17:14:32;91.13;;;33.70;;
5460;SDS011;2753;49.196;8.286;2022-12-18T17:16:58;87.60;;;33.37;;
5460;SDS011;2753;49.196;8.286;2022-12-18T17:19:25;79.70;;;31.60;;
5460;SDS011;2753;49.196;8.286;2022-12-18T17:21:51;88.67;;;32.90;;
5460;SDS011;2753;49.196;8.286;2022-12-18T17:24:17;98.73;;;33.83;;
5460;SDS011;2753;49.196;8.286;2022-12-18T17:26:44;104.23;;;34.50;;
5460;SDS011;2753;49.196;8.286;2022-12-18T17:29:15;109.90;;;35.93;;
5460;SDS011;2753;49.196;8.286;2022-12-18T17:31:42;96.23;;;31.60;;
5460;SDS011;2753;49.196;8.286;2022-12-18T17:34:09;109.20;;;34.17;;
5460;SDS011;2753;49.196;8.286;2022-12-18T17:36:36;88.83;;;31.07;;
5460;SDS011;2753;49.196;8.286;2022-12-18T17:39:03;86.00;;;31.03;;
5460;SDS011;2753;49.196;8.286;2022-12-18T17:41:30;81.70;;;30.57;;
5460;SDS011;2753;49.196;8.286;2022-12-18T17:43:57;83.13;;;30.30;;
5460;SDS011;2753;49.196;8.286;2022-12-18T17:46:24;80.40;;;30.30;;
5460;SDS011;2753;49.196;8.286;2022-12-18T17:48:53;87.27;;;30.80;;
5460;SDS011;2753;49.196;8.286;2022-12-18T17:51:19;105.03;;;34.50;;